Emmanuel Tomasos — C6SS7 — position and weather

sailwx.info

Track history (hours):
 
Tides and Currents Weather Stations Pressure Air Temp Water Temp Dewpoint Dewpoint Depression Visibility Wind Speed Wind Dir Waves Ship Positions

Emmanuel Tomasos

Last reported at 2014-Jul-30 02:30 UTC. Time now 2014-Jul-30 09:13 UTC.
Position N 39°49' E 025°55'.

Length 181 m; draft 7.1 m.

Type: Ship. MMSI: 311459000.

Date/timePositionNaut miles runAvg speedWind from/ knotsBaromVisibWave heightAir tempDewpointWater temp
2014-Jul-30 02:30N 39°49' E 025°55'0 0.0
2014-Jul-30 01:04N 39°49' E 025°55'0 0.0
2014-Jul-30 00:14N 39°49' E 025°55'8211.9
2014-Jul-29 17:20N 38°31' E 025°21'1113.9
2014-Jul-29 16:33N 38°21' E 025°27'1313.4
2014-Jul-29 15:33N 38°09' E 025°33'1313.5
2014-Jul-29 14:33N 37°57' E 025°40'1313.4
2014-Jul-29 13:33N 37°44' E 025°46'1414.0
2014-Jul-29 12:33N 37°31' E 025°53'1413.6
2014-Jul-29 11:34N 37°22' E 026°06'1414.1
2014-Jul-29 10:33N 37°13' E 026°19'1414.0
2014-Jul-29 09:33N 37°04' E 026°33'1513.6
2014-Jul-29 08:29N 36°51' E 026°42'1314.0
2014-Jul-29 07:33N 36°39' E 026°47'2913.7
2014-Jul-29 05:25N 36°16' E 027°08'1213.9
2014-Jul-29 04:33N 36°07' E 027°19'1413.7
2014-Jul-29 03:34N 35°58' E 027°31'1413.6
2014-Jul-29 02:34N 35°48' E 027°43'1414.2
2014-Jul-29 01:34N 35°43' E 027°59'21213.3
2014-Jul-28 09:33N 34°37' E 032°06'1313.4
2014-Jul-28 08:34N 34°33' E 032°21'1713.7
2014-Jul-28 07:21N 34°27' E 032°40'1114.0
2014-Jul-28 06:34N 34°24' E 032°53'1413.8
2014-Jul-28 05:34N 34°20' E 033°09'2913.3
2014-Jul-28 03:24N 34°13' E 033°43'1513.5
2014-Jul-28 02:17N 34°10' E 034°01'1113.5
2014-Jul-28 01:27N 34°07' E 034°14'1213.4
2014-Jul-28 00:33N 34°04' E 034°28'1413.5
2014-Jul-27 23:33N 34°01' E 034°44'  
2014-Jul-24 12:12N 33°54' E 035°33'2 1.8
2014-Jul-24 11:11N 33°55' E 035°31'0 0.4
2014-Jul-24 10:31N 33°55' E 035°31'63 7.0
2014-Jul-24 01:33N 34°06' E 034°16'1713.5
2014-Jul-24 00:18N 34°10' E 033°56'1013.4
2014-Jul-23 23:32N 34°13' E 033°44'1313.4
2014-Jul-23 22:33N 34°16' E 033°29'1313.5
2014-Jul-23 21:33N 34°19' E 033°13'1313.4
2014-Jul-23 20:33N 34°23' E 032°57'1413.5
2014-Jul-23 19:33N 34°27' E 032°42'1413.6
2014-Jul-23 18:33N 34°31' E 032°26'1413.7
2014-Jul-23 17:33N 34°35' E 032°10'1413.9
2014-Jul-23 16:33N 34°40' E 031°54'19313.5
2014-Jul-23 02:14N 35°40' E 028°10'812.6
2014-Jul-23 01:33N 35°42' E 028°00'1312.7
2014-Jul-23 00:31N 35°47' E 027°45'7013.0
2014-Jul-22 19:07N 36°39' E 026°48'713.1
2014-Jul-22 18:33N 36°46' E 026°44'1313.1
2014-Jul-22 17:32N 36°58' E 026°38'1312.9
2014-Jul-22 16:33N 37°07' E 026°26'1313.1
2014-Jul-22 15:33N 37°15' E 026°13'1313.1
2014-Jul-22 14:32N 37°24' E 026°01'1313.5
2014-Jul-22 13:33N 37°35' E 025°52'1913.3
2014-Jul-22 12:05N 37°53' E 025°42'813.6
2014-Jul-22 11:30N 38°01' E 025°38'1413.4
2014-Jul-22 10:27N 38°13' E 025°31'10412.9
2014-Jul-22 02:27N 39°55' E 025°53'1313.4
2014-Jul-22 01:29N 40°01' E 026°08'  
Track history (hours):
 
Tides and Currents Weather Stations Pressure Air Temp Water Temp Dewpoint Dewpoint Depression Visibility Wind Speed Wind Dir Waves Ship Positions

Emmanuel Tomasos

Last reported at 2014-Jul-30 02:30 UTC. Time now 2014-Jul-30 09:13 UTC.
Position N 39°49' E 025°55'.

Length 181 m; draft 7.1 m.

Type: Ship. MMSI: 311459000.

Date/timePositionNaut miles runAvg speedWind from/ knotsBaromVisibWave heightAir tempDewpointWater temp
2014-Jul-30 02:30N 39°49' E 025°55'0 0.0
2014-Jul-30 01:04N 39°49' E 025°55'0 0.0
2014-Jul-30 00:14N 39°49' E 025°55'8211.9
2014-Jul-29 17:20N 38°31' E 025°21'1113.9
2014-Jul-29 16:33N 38°21' E 025°27'1313.4
2014-Jul-29 15:33N 38°09' E 025°33'1313.5
2014-Jul-29 14:33N 37°57' E 025°40'1313.4
2014-Jul-29 13:33N 37°44' E 025°46'1414.0
2014-Jul-29 12:33N 37°31' E 025°53'1413.6
2014-Jul-29 11:34N 37°22' E 026°06'1414.1
2014-Jul-29 10:33N 37°13' E 026°19'1414.0
2014-Jul-29 09:33N 37°04' E 026°33'1513.6
2014-Jul-29 08:29N 36°51' E 026°42'1314.0
2014-Jul-29 07:33N 36°39' E 026°47'2913.7
2014-Jul-29 05:25N 36°16' E 027°08'1213.9
2014-Jul-29 04:33N 36°07' E 027°19'1413.7
2014-Jul-29 03:34N 35°58' E 027°31'1413.6
2014-Jul-29 02:34N 35°48' E 027°43'1414.2
2014-Jul-29 01:34N 35°43' E 027°59'21213.3
2014-Jul-28 09:33N 34°37' E 032°06'1313.4
2014-Jul-28 08:34N 34°33' E 032°21'1713.7
2014-Jul-28 07:21N 34°27' E 032°40'1114.0
2014-Jul-28 06:34N 34°24' E 032°53'1413.8
2014-Jul-28 05:34N 34°20' E 033°09'2913.3
2014-Jul-28 03:24N 34°13' E 033°43'1513.5
2014-Jul-28 02:17N 34°10' E 034°01'1113.5
2014-Jul-28 01:27N 34°07' E 034°14'1213.4
2014-Jul-28 00:33N 34°04' E 034°28'1413.5
2014-Jul-27 23:33N 34°01' E 034°44'  
2014-Jul-24 12:12N 33°54' E 035°33'2 1.8
2014-Jul-24 11:11N 33°55' E 035°31'0 0.4
2014-Jul-24 10:31N 33°55' E 035°31'63 7.0
2014-Jul-24 01:33N 34°06' E 034°16'1713.5
2014-Jul-24 00:18N 34°10' E 033°56'1013.4
2014-Jul-23 23:32N 34°13' E 033°44'1313.4
2014-Jul-23 22:33N 34°16' E 033°29'1313.5
2014-Jul-23 21:33N 34°19' E 033°13'1313.4
2014-Jul-23 20:33N 34°23' E 032°57'1413.5
2014-Jul-23 19:33N 34°27' E 032°42'1413.6
2014-Jul-23 18:33N 34°31' E 032°26'1413.7
2014-Jul-23 17:33N 34°35' E 032°10'1413.9
2014-Jul-23 16:33N 34°40' E 031°54'19313.5
2014-Jul-23 02:14N 35°40' E 028°10'812.6
2014-Jul-23 01:33N 35°42' E 028°00'1312.7
2014-Jul-23 00:31N 35°47' E 027°45'7013.0
2014-Jul-22 19:07N 36°39' E 026°48'713.1
2014-Jul-22 18:33N 36°46' E 026°44'1313.1
2014-Jul-22 17:32N 36°58' E 026°38'1312.9
2014-Jul-22 16:33N 37°07' E 026°26'1313.1
2014-Jul-22 15:33N 37°15' E 026°13'1313.1
2014-Jul-22 14:32N 37°24' E 026°01'1313.5
2014-Jul-22 13:33N 37°35' E 025°52'1913.3
2014-Jul-22 12:05N 37°53' E 025°42'813.6
2014-Jul-22 11:30N 38°01' E 025°38'1413.4
2014-Jul-22 10:27N 38°13' E 025°31'10412.9
2014-Jul-22 02:27N 39°55' E 025°53'1313.4
2014-Jul-22 01:29N 40°01' E 026°08'  

Dump ship's entire track history